Latest Coastal Weather Observations for Proserpine

IDQ60701

Issued at 5:42 am EST Sunday 26 March 2017 (issued every 10 minutes, with the page automatically refreshed every 10 minutes)

About coastal observations | Map of coastal stations | Coastal observations for QLD | Marine services | Other Formats
Station Details ID: 033247 Name: PROSERPINE AIRPORT Lat: -20.49 Lon: 148.56 Height: 19.7 m
Data from the previous 72 hours. | See also: Recent months at Proserpine
Date/Time
EST
Temp
°C
Wind Pressure Rain since
9am
mm
Weather Cloud Vis
km
Sea
Height
m
Swell
Dir  Spd
kts
Gust
kts
hPa Trend Height
m
Period
s
Dir
26/05:30am 25.8 SSE 13 20 1007.3 - 0.0 - Partly cloudy 10 - - - -
26/05:00am 26.2 S 14 21 1007.1 - 0.0 - Cloudy 10 - - - -
26/04:30am 26.0 SSE 13 18 1007.1 - 0.0 - Partly cloudy 10 - - - -
26/04:00am 26.1 SSE 14 23 1006.9 - 0.0 - Partly cloudy 10 - - - -
26/03:30am 25.9 SSE 15 20 1006.7 - 0.0 - Partly cloudy 10 - - - -
26/03:00am 25.5 SSE 13 19 1006.9 - 0.0 - Partly cloudy 10 - - - -
26/02:30am 25.4 SSE 14 21 1007.2 - 0.0 - - 10 - - - -
26/02:00am 25.6 SSE 15 19 1007.3 - 0.0 - Partly cloudy 10 - - - -
26/01:30am 25.0 SSE 12 16 1007.5 - 0.0 - Partly cloudy 10 - - - -
26/01:00am 25.0 SSE 12 16 1007.8 - 0.0 - Partly cloudy 10 - - - -
26/12:30am 24.7 SSE 10 14 1008.5 - 0.0 - Partly cloudy 10 - - - -
26/12:00am 24.8 SSE 10 14 1009.1 - 0.0 - - 10 - - - -
 
Date/Time
EST
Temp
°C
Wind Pressure Rain since
9am
mm
Weather Cloud Vis
km
Sea
Height
m
Swell
Dir  Spd
kts
Gust
kts
hPa Trend Height
m
Period
s
Dir
25/11:30pm 24.8 SSE 10 13 1009.6 - 0.0 - Partly cloudy 10 - - - -
25/11:00pm 24.5 S 8 11 1010.1 - 0.0 - - 10 - - - -
25/10:30pm 24.6 S 8 11 1010.3 - 0.0 - - 10 - - - -
25/10:00pm 24.8 S 7 11 1010.5 - 0.0 - Partly cloudy 10 - - - -
25/09:30pm 24.7 S 7 9 1010.5 - 0.0 - - 10 - - - -
25/09:00pm 25.2 S 7 9 1010.3 - 0.0 - - 10 - - - -
25/08:30pm 25.4 SSE 7 10 1010.0 - 0.0 - - 10 - - - -
25/08:00pm 26.0 S 7 10 1009.7 - 0.0 - Partly cloudy 10 - - - -
25/07:30pm 26.6 SSE 9 12 1009.5 - 0.0 - Partly cloudy 10 - - - -
25/07:00pm 26.9 SSE 9 12 1009.2 - 0.0 - Partly cloudy 10 - - - -
25/06:30pm 27.2 SSE 9 12 1008.8 - 0.0 - Partly cloudy 10 - - - -
25/06:00pm 28.2 SE 12 16 1008.5 - 0.0 - Mostly cloudy 10 - - - -
25/05:30pm 28.7 SE 13 18 1008.3 - 0.0 - - 10 - - - -
25/05:00pm 29.3 SE 15 22 1007.9 - 0.0 - Partly cloudy 10 - - - -
25/04:30pm 29.9 SE 15 20 1007.9 - 0.0 - Partly cloudy 10 - - - -
25/04:00pm 30.3 SE 15 21 1007.6 - 0.0 - Partly cloudy 10 - - - -
25/03:31pm 30.5 SE 18 28 1007.4 - 0.0 - Partly cloudy 10 - - - -
25/03:30pm 30.2 SE 19 28 1007.4 - 0.0 - Partly cloudy 10 - - - -
25/03:24pm 30.2 SE 18 28 1007.5 - 0.0 - - 10 - - - -
25/03:00pm 30.5 SE 20 27 1007.6 - 0.0 - Mostly clear 10 - - - -
25/02:30pm 29.3 SE 17 24 1007.5 - 0.0 - Partly cloudy 10 - - - -
25/02:03pm 29.4 SE 20 31 1007.9 - 0.0 - Partly cloudy 10 - - - -
25/02:00pm 30.1 SE 20 28 1007.9 - 0.0 - Partly cloudy 10 - - - -
25/01:52pm 30.8 SE 18 28 1007.9 - 0.0 - Partly cloudy 10 - - - -
25/01:30pm 30.5 SE 20 28 1008.1 - 0.0 - - 10 - - - -
25/01:00pm 29.5 SE 21 29 1008.6 - 0.0 - Partly cloudy 10 - - - -
25/12:30pm 28.3 SSE 16 23 1009.1 - 0.0 - Partly cloudy 10 - - - -
25/12:04pm 29.2 SSE 17 27 1009.5 - 0.0 - Partly cloudy 10 - - - -
25/12:00pm 29.4 SE 19 27 1009.6 - 0.0 - Partly cloudy 10 - - - -
25/11:30am 30.1 SE 19 30 1010.0 - 0.0 - Partly cloudy 10 - - - -
25/11:00am 29.1 SE 18 29 1010.3 - 0.0 - Partly cloudy 10 - - - -
25/10:45am 29.4 SE 17 27 1010.4 - 0.0 - Partly cloudy 10 - - - -
25/10:30am 28.4 SE 16 23 1010.5 - 0.0 - Partly cloudy 10 - - - -
25/10:00am 28.4 SSE 13 21 1010.6 - 0.0 - Partly cloudy 10 - - - -
25/09:30am 28.0 SSE 14 20 1010.5 - 0.0 - Partly cloudy 10 - - - -
25/09:00am 27.7 SSE 13 18 1010.5 - 0.2 - - 10 - - - -
25/08:30am 27.6 SSE 13 20 1010.2 - 0.2 - - 10 - - - -
25/08:00am 26.5 SSE 12 17 1009.9 - 0.2 - - 10 - - - -
25/07:30am 25.6 SSE 10 13 1009.4 - 0.2 - Partly cloudy 10 - - - -
25/07:00am 25.3 SSE 10 15 1009.1 - 0.2 - Partly cloudy 10 - - - -
25/06:30am 24.9 SSE 10 15 1008.9 - 0.2 - Partly cloudy 10 - - - -
25/06:00am 24.8 SSE 11 13 1008.7 - 0.2 - - 10 - - - -
25/05:30am 24.8 SSE 11 13 1008.2 - 0.2 - - 10 - - - -
25/05:00am 25.0 SSE 11 17 1008.2 - 0.2 - - 10 - - - -
25/04:30am 24.9 SSE 10 14 1008.1 - 0.2 - - 10 - - - -
25/04:00am 24.9 SSE 11 16 1008.1 - 0.2 - - 10 - - - -
25/03:30am 24.7 SSE 9 12 1008.2 - 0.2 - - 10 - - - -
25/03:00am 24.3 S 7 9 1008.4 - 0.2 - - 10 - - - -
25/02:30am 24.7 S 8 11 1008.6 - 0.2 - - 10 - - - -
25/02:00am 24.8 SSE 10 14 1008.9 - 0.2 - - 10 - - - -
25/01:30am 24.9 SSE 10 14 1009.0 - 0.2 - - 10 - - - -
25/01:00am 24.9 SSE 11 14 1009.1 - 0.2 - - 10 - - - -
25/12:30am 25.1 SSE 10 13 1009.4 - 0.2 - - 10 - - - -
25/12:00am 25.2 S 10 15 1009.7 - 0.2 Recent precip. - 10 - - - -
 
Date/Time
EST
Temp
°C
Wind Pressure Rain since
9am
mm
Weather Cloud Vis
km
Sea
Height
m
Swell
Dir  Spd
kts
Gust
kts
hPa Trend Height
m
Period
s
Dir
24/11:30pm 25.2 S 10 13 1009.7 - 0.0 - - 10 - - - -
24/11:00pm 25.2 S 10 14 1009.9 - 0.0 - Partly cloudy 10 - - - -
24/10:30pm 25.3 S 9 13 1010.2 - 0.0 - Partly cloudy 10 - - - -
24/10:00pm 25.6 SSE 10 14 1010.5 - 0.0 - Partly cloudy 10 - - - -
24/09:30pm 25.7 SSE 8 11 1010.4 - 0.0 - Partly cloudy 10 - - - -
24/09:00pm 26.0 SSE 9 11 1010.3 - 0.0 - Mostly cloudy 10 - - - -
24/08:30pm 25.9 S 9 13 1010.0 - 0.0 - Partly cloudy 10 - - - -
24/08:00pm 26.0 SSE 7 10 1009.9 - 0.0 - Partly cloudy 10 - - - -
24/07:30pm 26.4 SSE 9 12 1009.7 - 0.0 - Partly cloudy 10 - - - -
24/07:00pm 26.5 SSE 10 15 1009.4 - 0.0 - Partly cloudy 10 - - - -
24/06:30pm 26.8 SSE 11 15 1009.0 - 0.0 - Partly cloudy 10 - - - -
24/06:00pm 27.5 SE 13 20 1009.0 - 0.0 - Partly cloudy 10 - - - -
24/05:30pm 28.3 SE 15 20 1008.8 - 0.0 - - 10 - - - -
24/05:00pm 28.7 SE 14 18 1008.6 - 0.0 - Partly cloudy 10 - - - -
24/04:30pm 29.0 ESE 16 22 1008.0 - 0.0 - - 10 - - - -
24/04:00pm 29.4 ESE 17 25 1008.0 - 0.0 - - 10 - - - -
24/03:30pm 29.7 ESE 17 24 1008.3 - 0.0 - - 10 - - - -
24/03:00pm 29.6 ESE 19 25 1008.2 - 0.0 - Mostly clear 10 - - - -
24/02:30pm 30.0 ESE 18 25 1008.6 - 0.0 - - 10 - - - -
24/02:00pm 29.9 ESE 18 24 1008.9 - 0.0 - Partly cloudy 10 - - - -
24/01:30pm 30.1 SE 19 26 1009.1 - 0.0 - - 10 - - - -
24/01:00pm 29.2 SE 18 25 1009.5 - 0.0 - Partly cloudy 10 - - - -
24/12:30pm 29.5 SE 16 23 1010.1 - 0.0 - Partly cloudy 10 - - - -
24/12:00pm 29.0 SE 14 19 1010.5 - 0.0 - Cloudy 10 - - - -
24/11:30am 29.0 SE 14 19 1010.8 - 0.0 - Partly cloudy 10 - - - -
24/11:00am 27.7 S 9 13 1011.2 - 0.0 - Partly cloudy 10 - - - -
24/10:30am 26.9 S 11 14 1011.6 - 0.0 - Partly cloudy 10 - - - -
24/10:00am 25.9 S 7 12 1011.9 - 0.0 - Partly cloudy 10 - - - -
24/09:30am 24.2 SSW 6 8 1012.2 - 0.0 - Partly cloudy 10 - - - -
24/09:00am 23.4 S 6 8 1012.4 - 107.4 Rain Mostly cloudy 10 - - - -
24/08:33am 23.3 S 7 9 1012.4 - 106.2 - Partly cloudy 10 - - - -
24/08:30am 23.4 S 7 9 1012.4 - 105.8 - Partly cloudy 10 - - - -
24/08:18am 22.9 SE 9 13 1012.4 - 105.4 - Partly cloudy 6 - - - -
24/08:00am 23.7 SE 11 16 1012.3 - 103.6 - Partly cloudy 9 - - - -
24/07:30am 23.8 SSE 7 10 1011.4 - 102.8 - Partly cloudy 10 - - - -
24/07:00am 23.7 S 6 7 1011.0 - 102.6 - Partly cloudy 10 - - - -
24/06:53am 23.6 S 5 7 1010.9 - 102.6 - Partly cloudy 10 - - - -
24/06:51am 23.6 S 5 6 1010.9 - 102.6 - Partly cloudy 10 - - - -
24/06:30am 23.6 S 8 11 1010.7 - 101.0 - Partly cloudy 4 - - - -
24/06:02am 23.1 SSE 8 11 1010.5 - 93.2 - Partly cloudy 5 - - - -
24/06:00am 23.1 SSE 7 11 1010.5 - 92.4 Rain Cloudy 6 - - - -
24/05:57am 23.1 SSE 6 8 1010.4 - 91.6 - Partly cloudy 9 - - - -
24/05:54am 23.1 SSE 5 7 1010.3 - 91.6 - Partly cloudy 10 - - - -
24/05:42am 23.1 S 5 7 1010.1 - 91.2 - Partly cloudy 5 - - - -
24/05:30am 23.1 SSE 4 7 1009.9 - 90.2 - Partly cloudy 6 - - - -
24/05:14am 23.1 CALM 0 3 1009.7 - 90.0 - Partly cloudy 10 - - - -
24/05:00am 23.1 S 3 4 1009.5 - 90.0 - Partly cloudy 10 - - - -
24/04:30am 23.0 S 4 5 1009.3 - 90.0 - Partly cloudy 10 - - - -
24/04:04am 23.0 S 6 8 1009.5 - 90.0 - Partly cloudy 10 - - - -
24/04:00am 23.0 S 6 8 1009.5 - 90.0 - Partly cloudy 10 - - - -
24/03:59am 23.0 S 6 8 1009.5 - 90.0 - Partly cloudy 10 - - - -
24/03:30am 23.0 SSW 5 5 1009.6 - 90.0 - Partly cloudy 10 - - - -
24/03:00am 22.9 SSE 4 6 1009.6 - 90.0 - Partly cloudy 10 - - - -
24/02:54am 22.8 SE 4 6 1009.5 - 90.0 - Partly cloudy 10 - - - -
24/02:30am 22.9 SE 6 8 1009.6 - 90.0 - Partly cloudy 10 - - - -
24/02:00am 23.0 SSW 7 8 1009.8 - 90.0 - - 10 - - - -
24/01:30am 23.1 SW 6 8 1010.2 - 89.8 - Cloudy 10 - - - -
24/01:06am 23.3 SW 5 7 1010.9 - 88.8 - Partly cloudy 8 - - - -
24/01:00am 23.3 SW 5 7 1011.0 - 88.4 - Partly cloudy 8 - - - -
24/12:36am 23.3 S 7 9 1011.7 - 87.0 - Partly cloudy 6 - - - -
24/12:30am 23.3 S 7 10 1011.9 - 86.2 - Partly cloudy 7 - - - -
24/12:07am 23.1 SSE 7 10 1012.1 - 83.8 - Partly cloudy 8 - - - -
24/12:00am 23.0 SSE 8 10 1012.3 - 83.0 Rain Cloudy 7 - - - -
 
Date/Time
EST
Temp
°C
Wind Pressure Rain since
9am
mm
Weather Cloud Vis
km
Sea
Height
m
Swell
Dir  Spd
kts
Gust
kts
hPa Trend Height
m
Period
s
Dir
23/11:30pm 23.3 SE 14 20 1012.4 - 69.4 - Partly cloudy 2 - - - -
23/11:28pm 23.1 SE 14 20 1012.4 - 68.4 - Partly cloudy 3 - - - -
23/11:21pm 23.6 SE 11 15 1012.6 - 65.4 - Partly cloudy 6 - - - -
23/11:00pm 24.0 S 7 9 1012.3 - 62.8 - Partly cloudy 8 - - - -
23/10:30pm 23.9 S 5 6 1012.4 - 61.8 - Partly cloudy 10 - - - -
23/10:00pm 23.9 SSW 5 7 1012.5 - 61.8 - Partly cloudy 10 - - - -
23/09:59pm 24.0 SSW 5 7 1012.4 - 61.8 - Partly cloudy 10 - - - -
23/09:30pm 24.4 SW 4 5 1012.5 - 61.8 - Partly cloudy 9 - - - -
23/09:13pm 24.4 SSW 3 4 1012.3 - 61.8 - Partly cloudy 8 - - - -
23/09:00pm 24.4 SW 4 5 1012.3 - 61.6 Recent precip. Cloudy 10 - - - -
23/08:49pm 24.4 SSW 4 5 1012.1 - 61.6 - Partly cloudy 10 - - - -
23/08:40pm 24.4 WSW 4 5 1012.0 - 61.6 - Partly cloudy 7 - - - -
23/08:30pm 24.4 S 3 5 1011.9 - 61.0 - Partly cloudy 5 - - - -
23/08:00pm 24.3 S 8 13 1011.6 - 57.8 - Partly cloudy 1 - - - -
23/07:56pm 24.3 SSE 8 13 1011.7 - 56.0 - Partly cloudy 1 - - - -
23/07:33pm 24.5 S 5 6 1011.2 - 45.6 - Partly cloudy 6 - - - -
23/07:30pm 24.5 S 5 6 1011.2 - 45.0 - Partly cloudy 10 - - - -
23/07:00pm 24.3 SSW 5 6 1011.0 - 44.6 - Partly cloudy 10 - - - -
23/06:54pm 24.3 S 5 6 1011.0 - 44.6 - Partly cloudy 10 - - - -
23/06:43pm 24.4 SSW 5 6 1011.0 - 44.4 - Partly cloudy 6 - - - -
23/06:30pm 24.4 CALM 0 3 1010.9 - 43.6 - Partly cloudy 5 - - - -
23/06:29pm 24.4 CALM 0 0 1010.9 - 43.6 - Partly cloudy 6 - - - -
23/06:00pm 24.3 S 1 3 1010.5 - 42.6 Recent precip. Cloudy 10 - - - -
23/05:49pm 24.3 SSW 4 5 1010.4 - 42.6 - Partly cloudy 10 - - - -
23/05:30pm 24.3 SW 3 5 1010.1 - 42.6 - Partly cloudy 10 - - - -
23/05:00pm 24.2 ENE 1 4 1010.2 - 42.2 - Partly cloudy 10 - - - -
23/04:30pm 24.0 ESE 5 7 1010.0 - 41.4 - Partly cloudy 10 - - - -
23/04:00pm 23.9 ESE 5 7 1010.1 - 41.0 - Partly cloudy 9 - - - -
23/03:57pm 24.0 E 5 7 1010.1 - 40.8 - Partly cloudy 10 - - - -
23/03:30pm 24.2 E 7 10 1009.8 - 37.0 - Partly cloudy 4 - - - -
23/03:23pm 24.3 E 7 10 1009.9 - 35.2 - Partly cloudy 6 - - - -
23/03:15pm 24.4 E 8 13 1009.9 - 34.0 - Partly cloudy 10 - - - -
23/03:04pm 24.4 ENE 8 11 1009.9 - 33.8 - Partly cloudy 10 - - - -
23/03:02pm 24.3 ENE 8 11 1009.9 - 33.6 - Partly cloudy 10 - - - -
23/03:00pm 24.4 ENE 8 11 1009.8 - 33.6 Rain Cloudy 10 - - - -
23/02:30pm 25.1 ENE 12 16 1009.7 - 28.6 - Partly cloudy 5 - - - -
23/02:00pm 25.6 SE 8 13 1009.4 - 18.6 - Partly cloudy 1 - - - -
23/01:49pm 25.4 ESE 7 16 1009.4 - 9.2 - Partly cloudy 2 - - - -
23/01:44pm 26.8 SE 4 16 1009.4 - 2.4 - Partly cloudy 6 - - - -
23/01:32pm 27.7 SE 4 7 1009.4 - 0.6 - Partly cloudy 8 - - - -
23/01:30pm 27.9 ESE 5 7 1009.4 - 0.6 - Partly cloudy 9 - - - -
23/01:14pm 28.6 S 5 8 1009.6 - 0.4 - Partly cloudy 10 - - - -
23/01:00pm 28.4 S 7 10 1009.8 - 0.4 - Partly cloudy 10 - - - -
23/12:30pm 27.6 SSE 7 9 1010.3 - 0.2 - Partly cloudy 10 - - - -
23/12:00pm 27.4 S 5 8 1010.6 - 0.2 - Cloudy 10 - - - -
23/11:42am 27.1 S 7 9 1011.0 - 0.2 - Partly cloudy 10 - - - -
23/11:30am 27.0 S 7 8 1011.4 - 0.2 - Partly cloudy 10 - - - -
23/11:25am 26.6 S 6 8 1011.5 - 0.2 - Partly cloudy 10 - - - -
23/11:00am 26.4 S 7 8 1011.7 - 0.2 - Partly cloudy 10 - - - -
23/10:30am 26.5 S 6 7 1011.9 - 0.2 - Partly cloudy 10 - - - -
23/10:20am 25.8 SSW 6 8 1012.1 - 0.2 - Partly cloudy 10 - - - -
23/10:00am 25.6 S 5 6 1011.8 - 0.2 - Partly cloudy 10 - - - -
23/09:30am 25.0 SE 5 7 1011.7 - 0.0 - Cloudy 10 - - - -
23/09:06am 24.8 ENE 6 7 1011.8 - 0.0 - Partly cloudy 10 - - - -
23/09:05am 24.9 ENE 6 7 1011.8 - 0.0 - Partly cloudy 10 - - - -
23/09:00am 24.6 NE 5 7 1011.8 - 76.6 Recent precip. Cloudy 10 - - - -
23/08:59am 24.7 NE 5 7 1011.8 - 76.6 - Partly cloudy 10 - - - -
23/08:36am 24.7 ESE 4 6 1011.9 - 74.4 - Partly cloudy 6 - - - -
23/08:30am 24.6 ESE 5 7 1011.9 - 73.4 - Partly cloudy 10 - - - -
23/08:17am 24.6 ESE 5 7 1011.7 - 73.4 - Partly cloudy 10 - - - -
23/08:00am 24.5 E 5 7 1011.6 - 72.6 - Partly cloudy 5 - - - -
23/07:58am 24.4 E 5 6 1011.6 - 72.2 - Partly cloudy 6 - - - -
23/07:48am 24.5 ESE 3 4 1011.7 - 71.2 - Partly cloudy 10 - - - -
23/07:30am 24.3 CALM 0 0 1011.4 - 70.4 - Partly cloudy 10 - - - -
23/07:00am 24.2 ESE 3 4 1010.7 - 70.2 - Partly cloudy 9 - - - -
23/06:49am 24.1 SSE 5 7 1010.5 - 70.2 - Partly cloudy 9 - - - -
23/06:30am 24.1 CALM 0 0 1010.5 - 70.2 - Partly cloudy 10 - - - -
23/06:18am 24.0 CALM 0 0 1010.5 - 70.2 - Partly cloudy 10 - - - -
23/06:00am 24.0 SE 2 4 1010.1 - 70.2 - Cloudy 10 - - - -

Other Formats:

Comma delimited format used in spreadsheet applications
http://www.bom.gov.au/fwo/IDQ60701/IDQ60701.94365.axf

JavaScript Object Notation format (JSON) in row-major order
http://www.bom.gov.au/fwo/IDQ60701/IDQ60701.94365.json